Terminal Aerodrome Forecast
Issued by NWS

Current Version | Previous Version | Text Only | Print | Product List | Glossary On
Versions: 1 2 3 4 5 6 7 8 9 10 11 12
000
FTUS41 KLWX 292300
TAFMTN
TAF
KMTN 292331Z 3000/3024 33004KT P6SM SCT050
     FM300300 VRB03KT P6SM FEW090 SCT250
     FM301700 24005KT P6SM BKN090
     FM302000 22006KT P6SM SCT090
      AMD NOT SKED 3002/3012=

USA.gov is the U.S. government's official web portal to all federal, state and local government web resources and services.